createdAt,value
2022-09-20T00:00:11.119Z,101246.66
2022-09-20T00:03:13.669Z,101251.03
2022-09-20T00:05:48.381Z,101249.28
2022-09-20T00:08:20.269Z,101248.63
2022-09-20T00:10:55.539Z,101255.09
2022-09-20T00:13:27.211Z,101248.47
2022-09-20T00:15:59.345Z,101252.25
2022-09-20T00:18:30.877Z,101250.84
2022-09-20T00:21:02.839Z,101253.38
2022-09-20T00:23:34.569Z,101253.84
2022-09-20T00:26:09.141Z,101252.41
2022-09-20T00:28:40.730Z,101257.09
2022-09-20T00:31:13.990Z,101256.97
2022-09-20T00:33:57.971Z,101255.28
2022-09-20T00:36:30.279Z,101258.06
2022-09-20T00:39:04.341Z,101258.78
2022-09-20T00:41:39.230Z,101255.97
2022-09-20T00:44:41.041Z,101253.84
2022-09-20T00:47:17.610Z,101252.84
2022-09-20T00:49:49.820Z,101253.31
2022-09-20T00:52:22.182Z,101261.06
2022-09-20T00:54:54.309Z,101255.56
2022-09-20T00:57:56.339Z,101263.44
2022-09-20T01:00:30.092Z,101266.56
2022-09-20T01:03:10.610Z,101258.94
2022-09-20T01:05:44.492Z,101258.81
2022-09-20T01:08:17.660Z,101263.03
2022-09-20T01:10:50.219Z,101264.59
2022-09-20T01:13:25.298Z,101260.78
2022-09-20T01:15:59.282Z,101260.22
2022-09-20T01:18:33.031Z,101261.47
2022-09-20T01:21:07.160Z,101263.44
2022-09-20T01:23:55.030Z,101260.91
2022-09-20T01:26:53.679Z,101257.81
2022-09-20T01:29:47.589Z,101263.88
2022-09-20T01:32:24.176Z,101255.81
2022-09-20T01:35:01.102Z,101268.13
2022-09-20T01:37:39.263Z,101256.81
2022-09-20T01:40:20.301Z,101267.56
2022-09-20T01:43:06.013Z,101268.53
2022-09-20T01:45:47.932Z,101272.09
2022-09-20T01:48:31.121Z,101266.28
2022-09-20T01:51:33.721Z,101271.03
2022-09-20T01:54:36.719Z,101265.44
2022-09-20T01:57:38.078Z,101274.84
2022-09-20T02:00:15.359Z,101277.56
2022-09-20T02:03:24.481Z,101276.84
2022-09-20T02:06:30.571Z,101281.69
2022-09-20T02:09:29.149Z,101283.56
2022-09-20T02:12:21.069Z,101273.31
2022-09-20T02:15:06.651Z,101279.81
2022-09-20T02:17:48.440Z,101280.41
2022-09-20T02:20:35.690Z,101282.81
2022-09-20T02:23:24.410Z,101282.38
2022-09-20T02:26:13.881Z,101281.38
2022-09-20T02:28:56.850Z,101285.91
2022-09-20T02:31:53.931Z,101283.66
2022-09-20T02:34:54.410Z,101293.38
2022-09-20T02:37:53.439Z,101288.75
2022-09-20T02:40:38.537Z,101286.47
2022-09-20T02:43:20.992Z,101295.34
2022-09-20T02:46:04.556Z,101293.81
2022-09-20T02:48:45.690Z,101293.81
2022-09-20T02:51:27.739Z,101292.22
2022-09-20T02:54:09.840Z,101291.41
2022-09-20T02:56:51.260Z,101299.16
2022-09-20T02:59:34.711Z,101296.59
2022-09-20T03:02:19.237Z,101297.75
2022-09-20T03:05:05.970Z,101299.47
2022-09-20T03:07:49.453Z,101304.97
2022-09-20T03:10:32.324Z,101297.34
2022-09-20T03:13:20.843Z,101312.59
2022-09-20T03:16:06.247Z,101308.47
2022-09-20T03:18:47.021Z,101306.78
2022-09-20T03:21:35.259Z,101308.06
2022-09-20T03:24:21.350Z,101310.47
2022-09-20T03:27:05.909Z,101316.81
2022-09-20T03:29:59.739Z,101305.81
2022-09-20T03:32:47.919Z,101316.66
2022-09-20T03:35:38.140Z,101316.53
2022-09-20T03:38:48.284Z,101325.56
2022-09-20T03:41:37.392Z,101330.38
2022-09-20T03:44:29.370Z,101328.22
2022-09-20T03:47:13.480Z,101325.25
2022-09-20T03:50:16.536Z,101326.41
2022-09-20T03:53:04.349Z,101329.91
2022-09-20T03:55:54.889Z,101330.94
2022-09-20T03:58:42.581Z,101319.22
2022-09-20T04:01:37.164Z,101327.97
2022-09-20T04:04:22.960Z,101326.56
2022-09-20T04:07:27.082Z,101322.44
2022-09-20T04:10:30.830Z,101326.97
2022-09-20T04:13:18.539Z,101340.66
2022-09-20T04:16:13.470Z,101336.72
2022-09-20T04:18:57.220Z,101338.72
2022-09-20T04:21:38.080Z,101339.97
2022-09-20T04:24:21.676Z,101339.41
2022-09-20T04:26:58.949Z,101344.03
2022-09-20T04:29:39.271Z,101342.19
2022-09-20T04:32:19.599Z,101338.81
2022-09-20T04:35:13.450Z,101337.56
2022-09-20T04:37:48.070Z,101338.69
2022-09-20T04:40:36.905Z,101342.94
2022-09-20T04:43:52.111Z,101338.72
2022-09-20T04:47:00.342Z,101342.94
2022-09-20T04:50:21.860Z,101349.44
2022-09-20T04:53:19.478Z,101352.78
2022-09-20T04:55:59.180Z,101346.75
2022-09-20T04:59:08.850Z,101347.31
2022-09-20T05:02:22.619Z,101357.31
2022-09-20T05:05:32.961Z,101352.47
2022-09-20T05:08:48.900Z,101363.34
2022-09-20T05:11:47.500Z,101364.28
2022-09-20T05:14:40.060Z,101372.69
2022-09-20T05:17:39.399Z,101370.03
2022-09-20T05:20:34.539Z,101370.88
2022-09-20T05:23:34.060Z,101370.53
2022-09-20T05:26:11.859Z,101381.81
2022-09-20T05:28:57.080Z,101377.81
2022-09-20T05:31:40.691Z,101390.06
2022-09-20T05:34:26.156Z,101388.34
2022-09-20T05:37:09.881Z,101396.22
2022-09-20T05:39:53.120Z,101386.53
2022-09-20T05:42:37.724Z,101395.69
2022-09-20T05:45:26.129Z,101404.94
2022-09-20T05:48:03.200Z,101398.22
2022-09-20T05:50:48.293Z,101404.09
2022-09-20T05:53:52.282Z,101409.38
2022-09-20T05:56:47.208Z,101408.69
2022-09-20T05:59:41.519Z,101416.16
2022-09-20T06:02:31.301Z,101418.47
2022-09-20T06:05:07.821Z,101427.44
2022-09-20T06:08:02.639Z,101427.56
2022-09-20T06:10:54.161Z,101431.69
2022-09-20T06:13:42.647Z,101423.13
2022-09-20T06:16:20.855Z,101427.69
2022-09-20T06:19:04.959Z,101432.69
2022-09-20T06:21:46.640Z,101445.88
2022-09-20T06:24:28.480Z,101436.38
2022-09-20T06:27:03.180Z,101435.47
2022-09-20T06:29:41.841Z,101439.75
2022-09-20T06:32:13.859Z,101440.81
2022-09-20T06:34:46.341Z,101445.31
2022-09-20T06:37:46.801Z,101444.28
2022-09-20T06:40:53.463Z,101450.69
2022-09-20T06:43:25.281Z,101448.25
2022-09-20T06:46:00.253Z,101449.16
2022-09-20T06:48:35.583Z,101448.63
2022-09-20T06:51:08.460Z,101449.91
2022-09-20T06:53:44.262Z,101454.19
2022-09-20T06:56:21.942Z,101446.47
2022-09-20T06:58:54.875Z,101463.75
2022-09-20T07:01:30.817Z,101460.56
2022-09-20T07:04:03.224Z,101462.16
2022-09-20T07:06:36.339Z,101467.78
2022-09-20T07:09:09.100Z,101471.78
2022-09-20T07:11:41.861Z,101469.44
2022-09-20T07:14:15.899Z,101471.19
2022-09-20T07:16:51.462Z,101474.00
2022-09-20T07:19:24.274Z,101474.59
2022-09-20T07:21:57.520Z,101475.94
2022-09-20T07:24:31.501Z,101471.84
2022-09-20T07:27:07.831Z,101481.88
2022-09-20T07:29:41.313Z,101476.28
2022-09-20T07:32:18.507Z,101478.13
2022-09-20T07:34:51.074Z,101476.31
2022-09-20T07:37:24.067Z,101486.56
2022-09-20T07:39:56.955Z,101484.06
2022-09-20T07:42:30.094Z,101491.72
2022-09-20T07:45:03.100Z,101485.34
2022-09-20T07:47:41.771Z,101490.19
2022-09-20T07:50:13.356Z,101500.25
2022-09-20T07:52:45.697Z,101499.63
2022-09-20T07:55:18.285Z,101496.81
2022-09-20T07:57:49.822Z,101507.28
2022-09-20T08:00:21.601Z,101507.72
2022-09-20T08:03:06.132Z,101505.38
2022-09-20T08:05:37.163Z,101509.97
2022-09-20T08:08:09.516Z,101508.47
2022-09-20T08:10:41.711Z,101510.75
2022-09-20T08:16:09.430Z,101507.78
2022-09-20T08:18:49.629Z,101512.03
2022-09-20T08:21:23.139Z,101514.47
2022-09-20T08:23:55.537Z,101511.38
2022-09-20T08:26:27.753Z,101516.22
2022-09-20T08:29:02.126Z,101520.34
2022-09-20T08:34:52.396Z,101525.28
2022-09-20T08:37:25.437Z,101535.13
2022-09-20T08:39:58.882Z,101532.47
2022-09-20T08:42:39.041Z,101536.13
2022-09-20T08:45:33.865Z,101529.69
2022-09-20T08:48:14.416Z,101530.09
2022-09-20T08:50:49.945Z,101540.16
2022-09-20T08:53:22.984Z,101532.25
2022-09-20T08:55:58.344Z,101544.81
2022-09-20T08:58:31.309Z,101538.41
2022-09-20T09:01:03.891Z,101531.16
2022-09-20T09:03:37.470Z,101541.47
2022-09-20T09:06:24.654Z,101538.75
2022-09-20T09:09:02.131Z,101541.75
2022-09-20T09:11:34.571Z,101532.09
2022-09-20T09:14:31.712Z,101532.13
2022-09-20T09:17:04.340Z,101534.31
2022-09-20T09:19:47.781Z,101530.03
2022-09-20T09:22:37.293Z,101532.88
2022-09-20T09:25:13.535Z,101538.22
2022-09-20T09:27:55.253Z,101538.00
2022-09-20T09:30:31.616Z,101540.00
2022-09-20T09:33:28.811Z,101541.97
2022-09-20T09:36:08.296Z,101543.38
2022-09-20T09:38:46.293Z,101538.09
2022-09-20T09:41:30.195Z,101540.34
2022-09-20T09:44:05.935Z,101550.22
2022-09-20T09:46:40.774Z,101540.31
2022-09-20T09:49:18.812Z,101544.41
2022-09-20T09:52:07.133Z,101548.09
2022-09-20T09:54:45.093Z,101547.34
2022-09-20T09:57:29.550Z,101546.06
2022-09-20T10:00:20.376Z,101536.88
2022-09-20T10:03:26.811Z,101534.13
2022-09-20T10:06:11.293Z,101537.13
2022-09-20T10:08:55.094Z,101527.59
2022-09-20T10:11:39.773Z,101524.06
2022-09-20T10:14:25.898Z,101536.72
2022-09-20T10:17:16.093Z,101540.81
2022-09-20T10:20:13.563Z,101536.72
2022-09-20T10:23:30.137Z,101548.44
2022-09-20T10:25:56.660Z,101544.81
2022-09-20T10:28:48.931Z,101536.75
2022-09-20T10:31:39.612Z,101549.50
2022-09-20T10:34:35.855Z,101531.59
2022-09-20T10:37:21.060Z,101531.47
2022-09-20T10:40:08.551Z,101529.28
2022-09-20T10:43:00.859Z,101539.63
2022-09-20T10:48:52.170Z,101548.66
2022-09-20T10:51:39.771Z,101555.28
2022-09-20T10:54:26.936Z,101548.63
2022-09-20T10:57:14.972Z,101554.41
2022-09-20T11:00:00.094Z,101564.97
2022-09-20T11:03:04.095Z,101557.16
2022-09-20T11:05:46.858Z,101565.97
2022-09-20T11:08:23.338Z,101561.91
2022-09-20T11:10:58.668Z,101566.53
2022-09-20T11:13:38.929Z,101578.44
2022-09-20T11:17:00.685Z,101596.66
2022-09-20T11:19:51.051Z,101618.00
2022-09-20T11:22:32.493Z,101626.91
2022-09-20T11:25:20.869Z,101620.59
2022-09-20T11:28:05.622Z,101611.31
2022-09-20T11:30:47.241Z,101615.97
2022-09-20T11:33:26.073Z,101611.63
2022-09-20T11:36:06.500Z,101597.97
2022-09-20T11:38:53.028Z,101586.47
2022-09-20T11:41:30.473Z,101583.88
2022-09-20T11:44:08.152Z,101592.31
2022-09-20T11:46:48.720Z,101581.00
2022-09-20T11:49:25.323Z,101591.25
2022-09-20T11:52:29.313Z,101591.69
2022-09-20T11:55:21.709Z,101605.31
2022-09-20T11:58:08.669Z,101607.66
2022-09-20T12:00:44.764Z,101605.53
2022-09-20T12:03:32.057Z,101613.28
2022-09-20T12:06:06.387Z,101601.03
2022-09-20T12:08:44.428Z,101609.19
2022-09-20T12:11:32.606Z,101599.78
2022-09-20T12:14:08.193Z,101592.44
2022-09-20T12:16:45.265Z,101600.44
2022-09-20T12:19:39.176Z,101602.91
2022-09-20T12:22:31.816Z,101598.16
2022-09-20T12:25:33.455Z,101599.56
2022-09-20T12:28:18.656Z,101609.25
2022-09-20T12:30:50.856Z,101593.88
2022-09-20T12:33:25.657Z,101601.25
2022-09-20T12:36:17.938Z,101607.25
2022-09-20T12:38:55.563Z,101597.94
2022-09-20T12:41:30.458Z,101605.06
2022-09-20T12:44:31.616Z,101601.75
2022-09-20T12:47:06.748Z,101607.00
2022-09-20T12:49:59.818Z,101599.56
2022-09-20T12:52:58.860Z,101615.63
2022-09-20T12:56:00.621Z,101620.06
2022-09-20T12:58:45.568Z,101627.44
2022-09-20T13:01:40.321Z,101637.63
2022-09-20T13:04:43.754Z,101648.44
2022-09-20T13:07:49.915Z,101648.22
2022-09-20T13:10:30.562Z,101652.59
2022-09-20T13:13:15.718Z,101652.31
2022-09-20T13:15:55.154Z,101655.69
2022-09-20T13:18:32.556Z,101661.97
2022-09-20T13:21:08.641Z,101666.25
2022-09-20T13:23:51.840Z,101658.97
2022-09-20T13:26:30.606Z,101671.19
2022-09-20T13:29:02.879Z,101667.38
2022-09-20T13:31:39.740Z,101669.38
2022-09-20T13:34:24.924Z,101657.88
2022-09-20T13:37:01.650Z,101664.22
2022-09-20T13:39:38.728Z,101653.25
2022-09-20T13:42:20.367Z,101662.13
2022-09-20T13:44:53.688Z,101656.19
2022-09-20T13:47:31.571Z,101670.44
2022-09-20T13:50:24.493Z,101671.63
2022-09-20T13:52:59.447Z,101666.53
2022-09-20T13:55:34.726Z,101670.97
2022-09-20T13:58:10.149Z,101674.97
2022-09-20T14:00:50.424Z,101666.03
2022-09-20T14:03:24.308Z,101669.94
2022-09-20T14:06:03.667Z,101665.56
2022-09-20T14:08:40.948Z,101668.63
2022-09-20T14:11:19.547Z,101664.88
2022-09-20T14:13:54.477Z,101668.28
2022-09-20T14:16:32.033Z,101673.59
2022-09-20T14:19:08.438Z,101661.50
2022-09-20T14:21:45.253Z,101660.44
2022-09-20T14:24:35.879Z,101655.84
2022-09-20T14:27:19.983Z,101660.06
2022-09-20T14:29:53.822Z,101653.47
2022-09-20T14:32:43.305Z,101651.63
2022-09-20T14:35:23.437Z,101656.72
2022-09-20T14:38:03.155Z,101665.00
2022-09-20T14:40:45.116Z,101665.16
2022-09-20T14:43:33.072Z,101671.94
2022-09-20T14:46:08.035Z,101660.22
2022-09-20T14:48:43.198Z,101662.84
2022-09-20T14:51:25.760Z,101663.63
2022-09-20T14:54:26.672Z,101674.94
2022-09-20T14:57:02.117Z,101671.63
2022-09-20T14:59:50.056Z,101671.41
2022-09-20T15:02:23.125Z,101672.84
2022-09-20T15:05:02.783Z,101671.56
2022-09-20T15:07:35.674Z,101683.38
2022-09-20T15:10:16.409Z,101693.13
2022-09-20T15:12:49.014Z,101693.41
2022-09-20T15:15:22.152Z,101699.13
2022-09-20T15:18:08.675Z,101702.13
2022-09-20T15:21:01.191Z,101706.19
2022-09-20T15:23:33.634Z,101718.66
2022-09-20T15:26:10.112Z,101706.28
2022-09-20T15:28:45.836Z,101709.38
2022-09-20T15:31:21.651Z,101705.19
2022-09-20T15:33:54.235Z,101713.75
2022-09-20T15:36:32.272Z,101722.94
2022-09-20T15:39:05.442Z,101731.31
2022-09-20T15:41:42.070Z,101738.22
2022-09-20T15:44:14.871Z,101739.03
2022-09-20T15:46:48.794Z,101739.75
2022-09-20T15:49:22.159Z,101741.31
2022-09-20T15:51:56.750Z,101750.25
2022-09-20T15:54:29.439Z,101739.38
2022-09-20T15:57:05.392Z,101743.94
2022-09-20T15:59:38.148Z,101731.97
2022-09-20T16:02:14.255Z,101726.16
2022-09-20T16:04:47.031Z,101714.38
2022-09-20T16:07:26.069Z,101713.97
2022-09-20T16:10:01.194Z,101709.75
2022-09-20T16:12:36.829Z,101715.75
2022-09-20T16:15:10.958Z,101712.06
2022-09-20T16:17:56.115Z,101720.16
2022-09-20T16:20:28.678Z,101722.91
2022-09-20T16:23:02.557Z,101723.06
2022-09-20T16:25:35.269Z,101727.63
2022-09-20T16:28:12.306Z,101736.25
2022-09-20T16:31:08.049Z,101734.63
2022-09-20T16:37:04.066Z,101733.38
2022-09-20T16:39:58.449Z,101735.03
2022-09-20T16:42:52.443Z,101739.69
2022-09-20T16:45:29.261Z,101736.53
2022-09-20T16:48:08.565Z,101731.44
2022-09-20T16:50:47.936Z,101739.69
2022-09-20T16:53:20.229Z,101743.53
2022-09-20T16:55:56.310Z,101739.69
2022-09-20T16:58:34.310Z,101751.47
2022-09-20T17:01:11.938Z,101749.03
2022-09-20T17:03:44.987Z,101755.56
2022-09-20T17:06:26.858Z,101747.78
2022-09-20T17:09:02.026Z,101749.50
2022-09-20T17:11:37.316Z,101756.81
2022-09-20T17:14:10.313Z,101754.81
2022-09-20T17:16:56.810Z,101761.41
2022-09-20T17:19:31.753Z,101766.19
2022-09-20T17:22:04.314Z,101764.09
2022-09-20T17:24:36.764Z,101769.34
2022-09-20T17:27:09.834Z,101779.19
2022-09-20T17:29:41.955Z,101770.25
2022-09-20T17:32:14.493Z,101773.69
2022-09-20T17:35:16.313Z,101781.88
2022-09-20T17:37:50.794Z,101784.16
2022-09-20T17:40:22.758Z,101793.06
2022-09-20T17:42:55.233Z,101794.25
2022-09-20T17:45:27.463Z,101787.16
2022-09-20T17:48:00.287Z,101794.00
2022-09-20T17:50:35.304Z,101792.75
2022-09-20T17:53:11.431Z,101795.00
2022-09-20T17:55:47.278Z,101803.81
2022-09-20T17:58:19.916Z,101807.63
2022-09-20T18:00:56.841Z,101810.34
2022-09-20T18:03:29.960Z,101811.19
2022-09-20T18:06:13.452Z,101812.63
2022-09-20T18:08:50.195Z,101819.44
2022-09-20T18:11:25.759Z,101823.41
2022-09-20T18:13:58.437Z,101823.13
2022-09-20T18:16:37.632Z,101825.97
2022-09-20T18:19:14.581Z,101835.03
2022-09-20T18:21:52.049Z,101834.47
2022-09-20T18:24:26.270Z,101834.78
2022-09-20T18:26:58.568Z,101830.09
2022-09-20T18:29:36.997Z,101842.00
2022-09-20T18:32:19.087Z,101839.44
2022-09-20T18:34:53.295Z,101836.75
2022-09-20T18:37:27.231Z,101848.38
2022-09-20T18:39:58.666Z,101850.38
2022-09-20T18:42:31.274Z,101840.16
2022-09-20T18:45:02.966Z,101847.66
2022-09-20T18:47:34.197Z,101845.09
2022-09-20T18:50:06.951Z,101850.63
2022-09-20T18:52:42.557Z,101847.38
2022-09-20T18:55:15.898Z,101851.31
2022-09-20T18:57:48.236Z,101852.44
2022-09-20T19:00:21.319Z,101864.22
2022-09-20T19:03:10.176Z,101864.03
2022-09-20T19:05:54.214Z,101853.41
2022-09-20T19:08:38.105Z,101861.22
2022-09-20T19:11:30.297Z,101862.75
2022-09-20T19:14:14.215Z,101869.22
2022-09-20T19:16:53.158Z,101866.81
2022-09-20T19:20:21.254Z,101866.50
2022-09-20T19:27:43.341Z,101879.94
2022-09-20T19:30:40.788Z,101874.44
2022-09-20T19:33:20.561Z,101879.22
2022-09-20T19:35:54.882Z,101882.03
2022-09-20T19:38:38.495Z,101878.78
2022-09-20T19:41:29.695Z,101887.09
2022-09-20T19:44:21.738Z,101894.19
2022-09-20T19:47:12.655Z,101894.47
2022-09-20T19:49:53.852Z,101907.16
2022-09-20T19:52:29.042Z,101902.19
2022-09-20T19:55:02.106Z,101899.66
2022-09-20T19:57:43.002Z,101907.28
2022-09-20T20:00:20.631Z,101900.19
2022-09-20T20:02:54.299Z,101907.41
2022-09-20T20:05:28.008Z,101905.69
2022-09-20T20:08:18.010Z,101903.69
2022-09-20T20:11:00.042Z,101907.75
2022-09-20T20:13:53.817Z,101910.56
2022-09-20T20:16:36.844Z,101911.16
2022-09-20T20:19:23.171Z,101920.19
2022-09-20T20:22:01.041Z,101922.28
2022-09-20T20:24:40.364Z,101929.50
2022-09-20T20:27:12.445Z,101928.06
2022-09-20T20:29:44.993Z,101928.31
2022-09-20T20:32:19.758Z,101934.69
2022-09-20T20:34:56.049Z,101932.28
2022-09-20T20:37:28.667Z,101935.53
2022-09-20T20:40:01.103Z,101932.53
2022-09-20T20:42:33.974Z,101938.03
2022-09-20T20:45:06.434Z,101943.28
2022-09-20T20:47:42.932Z,101941.69
2022-09-20T20:50:15.172Z,101944.25
2022-09-20T20:52:47.053Z,101950.47
2022-09-20T20:55:19.513Z,101947.19
2022-09-20T20:57:58.662Z,101946.59
2022-09-20T21:00:31.731Z,101948.81
2022-09-20T21:03:06.694Z,101951.66
2022-09-20T21:05:38.752Z,101946.41
2022-09-20T21:08:11.773Z,101950.94
2022-09-20T21:10:43.958Z,101950.31
2022-09-20T21:13:16.212Z,101958.25
2022-09-20T21:15:49.126Z,101955.81
2022-09-20T21:18:23.794Z,101959.38
2022-09-20T21:20:56.074Z,101956.94
2022-09-20T21:23:27.935Z,101966.22
2022-09-20T21:26:12.974Z,101963.28
2022-09-20T21:28:49.143Z,101961.00
2022-09-20T21:31:22.744Z,101964.78
2022-09-20T21:33:57.274Z,101971.00
2022-09-20T21:36:32.322Z,101977.09
2022-09-20T21:39:04.144Z,101974.69
2022-09-20T21:41:38.384Z,101980.31
2022-09-20T21:44:12.503Z,101983.81
2022-09-20T21:46:45.670Z,101983.94
2022-09-20T21:49:20.102Z,101983.00
2022-09-20T21:52:13.403Z,101997.16
2022-09-20T21:54:46.841Z,101989.00
2022-09-20T21:57:18.743Z,101994.34
2022-09-20T21:59:50.787Z,101983.63
2022-09-20T22:02:23.701Z,101992.38
2022-09-20T22:04:58.362Z,101993.47
2022-09-20T22:07:30.782Z,101996.28
2022-09-20T22:10:02.642Z,101994.63
2022-09-20T22:12:35.082Z,101990.47
2022-09-20T22:15:07.190Z,101993.16
2022-09-20T22:17:40.663Z,101992.19
2022-09-20T22:20:15.603Z,101995.97
2022-09-20T22:22:50.504Z,101991.69
2022-09-20T22:25:22.823Z,101993.91
2022-09-20T22:27:57.303Z,101992.69
2022-09-20T22:30:29.630Z,102004.41
2022-09-20T22:33:04.723Z,102006.13
2022-09-20T22:35:47.503Z,102001.38
2022-09-20T22:38:22.491Z,101992.34
2022-09-20T22:41:00.505Z,101992.84
2022-09-20T22:43:34.802Z,101995.38
2022-09-20T22:46:08.382Z,101997.47
2022-09-20T22:48:42.460Z,101991.41
2022-09-20T22:51:19.761Z,101999.56
2022-09-20T22:53:53.223Z,101994.31
2022-09-20T22:56:29.330Z,101991.91
2022-09-20T22:59:03.354Z,102008.00
2022-09-20T23:01:42.973Z,101993.94
2022-09-20T23:04:23.641Z,101993.09
2022-09-20T23:06:58.543Z,102001.53
2022-09-20T23:09:31.365Z,101994.69
2022-09-20T23:12:03.501Z,101995.78
2022-09-20T23:14:35.901Z,101999.59
2022-09-20T23:17:08.202Z,102003.22
2022-09-20T23:19:40.703Z,102005.31
2022-09-20T23:22:15.863Z,102005.69
2022-09-20T23:24:48.364Z,102007.50
2022-09-20T23:27:20.429Z,102009.44
2022-09-20T23:29:52.723Z,102011.38
2022-09-20T23:32:24.943Z,102022.34
2022-09-20T23:34:57.401Z,102016.03
2022-09-20T23:37:32.165Z,102026.09
2022-09-20T23:40:04.652Z,102033.06
2022-09-20T23:42:36.701Z,102034.16
2022-09-20T23:45:10.762Z,102032.66
2022-09-20T23:47:42.761Z,102043.50
2022-09-20T23:50:15.483Z,102036.06
2022-09-20T23:52:50.363Z,102025.47
2022-09-20T23:55:22.843Z,102021.00
2022-09-20T23:57:59.084Z,102023.16
